Time;durP1;ratioP1;P1;durP2;ratioP2;P2;SDS_P1;SDS_P2;PMS_P1;PMS_P2;Temp;Humidity;BMP_temperature;BMP_pressure;BME280_temperature;BME280_humidity;BME280_pressure;Samples;Min_cycle;Max_cycle;Signal;HPM_P1;HPM_P2
2022/07/14 00:06:23;;;;;;;;;;;;;;;15.67;65.30;98600.56;4676640;30;19927;-87
2022/07/14 00:08:55;;;;;;;;;;;;;;;15.78;64.73;98588.50;4671199;30;19995;-86
2022/07/14 00:11:32;;;;;;;;;;;;;;;15.86;64.38;98587.06;4673564;30;19951;-87
2022/07/14 00:14:04;;;;;;;;;;;;;;;15.93;64.21;98586.72;4673722;30;19924;-87
2022/07/14 00:16:36;;;;;;;;;;;;;;;15.93;64.39;98581.28;4669286;30;20384;-88
2022/07/14 00:19:15;;;;;;;;;;;;;;;15.94;64.32;98589.16;4669519;30;19923;-86
2022/07/14 00:26:10;;;;;;;;;;;;;;;16.12;64.20;98584.03;4673136;30;19926;-87
2022/07/14 00:28:41;;;;;;;;;;;;;;;16.19;64.27;98584.50;4679476;30;19955;-86
2022/07/14 00:31:11;;;;;;;;;;;;;;;16.23;64.34;98575.47;4666622;30;20397;-84
2022/07/14 00:33:51;;;;;;;;;;;;;;;16.26;64.56;98576.81;4658242;30;20523;-87
2022/07/14 00:36:22;;;;;;;;;;;;;;;16.28;64.82;98566.44;4671329;30;19923;-86
2022/07/14 00:38:51;;;;;;;;;;;;;;;16.31;64.69;98568.56;4655483;30;20480;-85
2022/07/14 00:41:19;;;;;;;;;;;;;;;16.32;64.65;98562.00;4653870;30;20323;-86
2022/07/14 00:43:53;;;;;;;;;;;;;;;16.31;64.83;98557.66;4668787;30;20455;-88
2022/07/14 00:46:21;;;;;;;;;;;;;;;16.30;64.94;98558.75;4671109;30;20340;-88
2022/07/14 00:48:58;;;;;;;;;;;;;;;16.31;64.95;98557.66;4655043;30;19931;-86
2022/07/14 00:55:55;;;;;;;;;;;;;;;16.29;64.93;98554.44;4669180;30;19971;-86
2022/07/14 01:02:42;;;;;;;;;;;;;;;16.28;64.93;98539.22;4667996;30;19927;-83
2022/07/14 01:05:26;;;;;;;;;;;;;;;16.31;64.82;98535.09;4639991;30;20436;-83
2022/07/14 01:08:18;;;;;;;;;;;;;;;16.32;64.88;98536.69;4655826;30;19924;-84
2022/07/14 01:15:21;;;;;;;;;;;;;;;16.30;64.72;98515.19;4667883;30;19926;-86
2022/07/14 01:17:51;;;;;;;;;;;;;;;16.30;64.47;98512.47;4666647;30;20388;-85
2022/07/14 01:20:19;;;;;;;;;;;;;;;16.30;64.31;98509.75;4667681;30;20423;-85
2022/07/14 01:22:53;;;;;;;;;;;;;;;16.31;64.12;98516.84;4666530;30;20440;-86
2022/07/14 01:25:25;;;;;;;;;;;;;;;16.35;63.90;98512.41;4653499;30;19930;-87
2022/07/14 01:27:57;;;;;;;;;;;;;;;16.42;63.33;98521.00;4667837;30;20443;-85
2022/07/14 01:30:28;;;;;;;;;;;;;;;16.49;62.87;98525.28;4653491;30;20376;-86
2022/07/14 01:32:57;;;;;;;;;;;;;;;16.54;62.14;98526.03;4667545;30;20471;-86
2022/07/14 01:35:34;;;;;;;;;;;;;;;16.63;61.12;98526.16;4653990;30;20364;-86
2022/07/14 01:38:31;;;;;;;;;;;;;;;16.72;60.65;98529.84;4667083;30;19927;-88
2022/07/14 01:40:58;;;;;;;;;;;;;;;16.80;59.66;98529.19;4667032;30;20341;-87
2022/07/14 01:43:35;;;;;;;;;;;;;;;16.85;59.41;98531.84;4666997;30;20369;-86
2022/07/14 01:46:05;;;;;;;;;;;;;;;16.89;59.61;98535.59;4666898;30;19927;-85
2022/07/14 01:48:39;;;;;;;;;;;;;;;16.93;59.08;98541.25;4665719;30;19924;-85
2022/07/14 01:55:38;;;;;;;;;;;;;;;16.56;62.87;98629.22;4666696;30;19931;-82
2022/07/14 01:58:09;;;;;;;;;;;;;;;15.96;65.46;98625.06;4638939;30;20424;-83
2022/07/14 02:04:56;;;;;;;;;;;;;;;15.64;66.85;98612.00;4667039;30;19971;-85
2022/07/14 02:07:36;;;;;;;;;;;;;;;15.61;66.64;98618.84;4666427;30;20296;-84
2022/07/14 02:14:43;;;;;;;;;;;;;;;15.72;65.11;98616.88;4630696;31;20409;-84
2022/07/14 02:17:21;;;;;;;;;;;;;;;15.87;64.77;98605.00;4630790;31;20414;-84
2022/07/14 02:19:50;;;;;;;;;;;;;;;15.97;64.37;98615.78;4630774;31;20396;-84
2022/07/14 02:22:20;;;;;;;;;;;;;;;16.09;64.07;98623.53;4630847;31;20473;-84
2022/07/14 02:24:55;;;;;;;;;;;;;;;16.17;63.52;98620.19;4617939;31;20484;-83
2022/07/14 02:27:24;;;;;;;;;;;;;;;16.21;62.27;98625.88;4632330;31;20417;-84
2022/07/14 02:29:58;;;;;;;;;;;;;;;16.21;62.68;98629.41;4631131;31;20370;-83
2022/07/14 02:32:35;;;;;;;;;;;;;;;16.19;61.82;98626.16;4635625;31;20019;-83
2022/07/14 02:35:03;;;;;;;;;;;;;;;16.15;62.27;98627.00;4636812;31;20437;-87
2022/07/14 02:37:36;;;;;;;;;;;;;;;16.16;62.09;98624.00;4632306;31;20416;-83
2022/07/14 02:40:05;;;;;;;;;;;;;;;16.19;61.49;98628.88;4630369;31;20446;-85
2022/07/14 02:42:33;;;;;;;;;;;;;;;16.22;61.45;98619.31;4630854;31;20382;-83
2022/07/14 02:45:08;;;;;;;;;;;;;;;16.22;61.36;98613.88;4630779;31;20398;-83
2022/07/14 02:47:37;;;;;;;;;;;;;;;16.16;61.71;98602.22;4649452;30;20369;-84
2022/07/14 02:54:33;;;;;;;;;;;;;;;15.67;65.14;98572.53;4666133;30;19971;-83
2022/07/14 02:57:03;;;;;;;;;;;;;;;15.65;65.71;98567.41;4666253;30;20361;-84
2022/07/14 02:59:31;;;;;;;;;;;;;;;15.64;66.32;98570.41;4666557;30;20380;-84
2022/07/14 03:06:26;;;;;;;;;;;;;;;15.52;67.51;98573.50;4665969;30;20336;-84
2022/07/14 03:08:54;;;;;;;;;;;;;;;15.53;67.49;98572.44;4665828;30;20370;-82
2022/07/14 03:15:41;;;;;;;;;;;;;;;15.63;69.22;98538.88;4666627;30;19927;-82
2022/07/14 03:18:13;;;;;;;;;;;;;;;15.54;69.71;98534.06;4666571;30;20385;-81
2022/07/14 03:25:19;;;;;;;;;;;;;;;15.69;70.54;98519.50;4666755;30;20439;-83
2022/07/14 03:27:51;;;;;;;;;;;;;;;15.69;70.63;98521.38;4668383;30;20364;-82
2022/07/14 03:34:44;;;;;;;;;;;;;;;15.76;71.03;98502.84;4669406;30;19936;-83
2022/07/14 03:37:23;;;;;;;;;;;;;;;15.74;71.35;98510.47;4668109;30;20010;-83
2022/07/14 03:39:55;;;;;;;;;;;;;;;15.73;71.91;98514.31;4668864;30;20457;-84
2022/07/14 03:42:30;;;;;;;;;;;;;;;15.74;71.78;98507.75;4668642;30;20368;-84
2022/07/14 03:45:03;;;;;;;;;;;;;;;15.74;72.17;98518.66;4654234;30;20377;-85
2022/07/14 03:47:33;;;;;;;;;;;;;;;15.79;71.91;98510.41;4668928;30;20380;-85
2022/07/14 03:50:06;;;;;;;;;;;;;;;15.92;71.41;98501.53;4654602;30;20361;-84
2022/07/14 03:52:36;;;;;;;;;;;;;;;16.03;71.52;98505.78;4640022;30;20487;-83
2022/07/14 03:55:07;;;;;;;;;;;;;;;16.14;71.41;98508.34;4668795;30;20385;-83
2022/07/14 03:57:38;;;;;;;;;;;;;;;16.23;70.87;98501.97;4654417;30;20387;-86
2022/07/14 04:00:07;;;;;;;;;;;;;;;16.32;71.00;98504.03;4653737;30;20389;-85
2022/07/14 04:02:43;;;;;;;;;;;;;;;16.35;71.31;98496.06;4668775;30;20392;-85
2022/07/14 04:05:23;;;;;;;;;;;;;;;16.40;71.59;98508.78;4668933;30;19930;-83
2022/07/14 04:07:58;;;;;;;;;;;;;;;16.46;71.51;98496.75;4668996;30;20392;-79
2022/07/14 04:10:32;;;;;;;;;;;;;;;16.43;72.16;98475.53;4667149;30;20400;-84
2022/07/14 04:13:01;;;;;;;;;;;;;;;16.42;72.42;98460.28;4625594;30;20344;-83
2022/07/14 04:15:37;;;;;;;;;;;;;;;16.35;71.79;98463.38;4654318;30;19935;-82
2022/07/14 04:18:09;;;;;;;;;;;;;;;16.39;71.83;98458.97;4639825;30;20383;-83
2022/07/14 04:25:05;;;;;;;;;;;;;;;16.79;71.08;98458.66;4668397;30;19970;-84
2022/07/14 04:27:34;;;;;;;;;;;;;;;16.91;71.01;98453.50;4668132;30;20455;-84
2022/07/14 04:30:03;;;;;;;;;;;;;;;17.02;70.65;98460.41;4667872;30;19931;-82
2022/07/14 04:32:31;;;;;;;;;;;;;;;17.09;70.10;98454.56;4653182;30;20369;-84
2022/07/14 04:34:59;;;;;;;;;;;;;;;17.12;70.02;98459.44;4668411;30;20442;-84
2022/07/14 04:37:29;;;;;;;;;;;;;;;17.21;70.00;98454.06;4668424;30;20436;-84
2022/07/14 04:40:00;;;;;;;;;;;;;;;17.30;69.48;98461.25;4638600;30;20387;-85
2022/07/14 04:42:30;;;;;;;;;;;;;;;17.47;68.89;98459.84;4666317;30;20309;-85
2022/07/14 04:45:02;;;;;;;;;;;;;;;17.68;68.41;98463.78;4667465;30;20388;-83
2022/07/14 04:47:30;;;;;;;;;;;;;;;17.84;67.91;98458.84;4654904;30;20385;-85
2022/07/14 04:52:47;;;;;;;;;;;;;;;18.14;66.06;98467.50;4656965;30;20361;-84
2022/07/14 04:55:53;;;;;;;;;;;;;;;18.28;65.59;98451.06;4631694;30;20376;-84
2022/07/14 04:58:36;;;;;;;;;;;;;;;18.47;65.13;98459.91;4667882;30;19924;-85
2022/07/14 05:01:05;;;;;;;;;;;;;;;18.55;64.86;98461.88;4667940;30;20385;-83
2022/07/14 05:03:39;;;;;;;;;;;;;;;18.62;64.51;98462.25;4667430;30;20397;-84
2022/07/14 05:06:08;;;;;;;;;;;;;;;18.60;64.35;98456.28;4667890;30;20353;-83
2022/07/14 05:08:37;;;;;;;;;;;;;;;18.60;64.70;98450.81;4666169;30;19924;-84
2022/07/14 05:15:32;;;;;;;;;;;;;;;18.38;65.36;98445.34;4667080;30;20443;-85
2022/07/14 05:18:06;;;;;;;;;;;;;;;18.47;65.05;98438.03;4652075;30;19975;-84
2022/07/14 05:25:03;;;;;;;;;;;;;;;18.70;64.38;98422.44;4667257;30;20419;-84
2022/07/14 05:27:37;;;;;;;;;;;;;;;18.78;64.17;98423.66;4652874;30;20373;-84
2022/07/14 05:34:59;;;;;;;;;;;;;;;18.91;64.24;98422.75;4666748;30;20248;-85
2022/07/14 05:37:30;;;;;;;;;;;;;;;19.01;64.04;98417.00;4666767;30;20381;-85
2022/07/14 05:40:02;;;;;;;;;;;;;;;19.01;63.73;98425.22;4666566;30;20388;-84
2022/07/14 05:42:32;;;;;;;;;;;;;;;19.05;63.89;98423.47;4667232;30;20333;-83
2022/07/14 05:45:04;;;;;;;;;;;;;;;19.18;63.63;98416.28;4651986;30;20345;-83
2022/07/14 05:47:34;;;;;;;;;;;;;;;19.34;62.98;98422.13;4652456;30;20306;-84
2022/07/14 05:50:06;;;;;;;;;;;;;;;19.44;62.96;98416.38;4665595;30;19928;-85
2022/07/14 05:52:35;;;;;;;;;;;;;;;19.46;62.58;98422.34;4666111;30;20369;-85
2022/07/14 05:55:04;;;;;;;;;;;;;;;19.49;62.23;98427.19;4651153;30;20262;-84
2022/07/14 05:57:38;;;;;;;;;;;;;;;19.47;61.71;98426.72;4652429;30;20411;-83
2022/07/14 06:00:11;;;;;;;;;;;;;;;19.44;61.17;98430.06;4665975;30;20292;-83
2022/07/14 06:02:43;;;;;;;;;;;;;;;19.54;60.99;98436.38;4651603;30;20395;-82
2022/07/14 06:05:18;;;;;;;;;;;;;;;19.75;60.69;98445.66;4639624;30;20366;-82
2022/07/14 06:07:48;;;;;;;;;;;;;;;19.95;59.93;98435.22;4666390;30;20376;-83
2022/07/14 06:14:50;;;;;;;;;;;;;;;21.00;56.78;98432.09;4666737;30;20081;-84
2022/07/14 06:17:19;;;;;;;;;;;;;;;21.37;55.33;98428.91;4637830;30;19930;-84
2022/07/14 06:19:48;;;;;;;;;;;;;;;21.19;58.17;98439.97;4637222;30;19930;-83
2022/07/14 06:22:31;;;;;;;;;;;;;;;20.97;59.09;98435.50;4627019;30;19959;-85
2022/07/14 06:25:11;;;;;;;;;;;;;;;20.84;59.91;98438.44;4626035;30;20303;-85
2022/07/14 06:27:42;;;;;;;;;;;;;;;20.70;60.20;98433.94;4651142;30;20317;-83
2022/07/14 06:30:20;;;;;;;;;;;;;;;20.78;61.04;98432.31;4625878;30;19927;-84
2022/07/14 06:32:52;;;;;;;;;;;;;;;20.99;60.10;98430.50;4637523;30;20354;-85
2022/07/14 06:35:21;;;;;;;;;;;;;;;21.14;59.44;98423.69;4637524;30;20397;-84
2022/07/14 06:37:51;;;;;;;;;;;;;;;21.04;58.54;98428.69;4651664;30;20278;-86
2022/07/14 06:40:20;;;;;;;;;;;;;;;20.97;57.18;98424.53;4667122;30;20443;-90
2022/07/14 06:42:49;;;;;;;;;;;;;;;20.78;57.26;98424.88;4666514;30;20364;-86
2022/07/14 06:45:40;;;;;;;;;;;;;;;20.66;57.89;98433.00;4639627;30;20288;-83
2022/07/14 06:48:09;;;;;;;;;;;;;;;20.52;58.26;98429.59;4666440;30;20211;-82
2022/07/14 06:50:37;;;;;;;;;;;;;;;20.24;59.56;98432.66;4651193;30;19931;-85
2022/07/14 06:53:06;;;;;;;;;;;;;;;20.07;59.76;98432.66;4666144;30;19924;-85
2022/07/14 06:55:38;;;;;;;;;;;;;;;19.82;62.13;98424.06;4665755;30;20385;-82
2022/07/14 06:58:07;;;;;;;;;;;;;;;19.51;64.80;98402.25;4664724;30;20403;-87
2022/07/14 07:00:35;;;;;;;;;;;;;;;19.25;65.28;98413.13;4664948;30;20373;-86
2022/07/14 07:03:09;;;;;;;;;;;;;;;19.09;65.86;98431.88;4663808;30;20320;-81
2022/07/14 07:08:31;;;;;;;;;;;;;;;18.30;71.19;98437.91;4650249;30;20254;-82
2022/07/14 07:15:23;;;;;;;;;;;;;;;17.56;69.49;98422.56;4665873;30;19955;-84
2022/07/14 07:17:54;;;;;;;;;;;;;;;17.54;66.15;98402.97;4666346;30;20452;-84
2022/07/14 07:20:24;;;;;;;;;;;;;;;17.55;66.73;98389.03;4666589;30;20369;-84
2022/07/14 07:22:55;;;;;;;;;;;;;;;17.61;67.57;98373.34;4668365;30;20379;-85
2022/07/14 07:25:26;;;;;;;;;;;;;;;17.76;68.24;98375.75;4668447;30;20369;-84
2022/07/14 07:27:58;;;;;;;;;;;;;;;17.89;69.95;98367.88;4675558;30;19941;-84
2022/07/14 07:34:51;;;;;;;;;;;;;;;18.80;67.06;98361.28;4665942;30;19930;-82
2022/07/14 07:37:20;;;;;;;;;;;;;;;19.21;65.97;98362.88;4665930;30;20021;-82
2022/07/14 07:39:53;;;;;;;;;;;;;;;19.41;64.77;98337.69;4665391;30;19924;-83
2022/07/14 07:42:22;;;;;;;;;;;;;;;19.89;63.52;98346.94;4663861;30;20292;-81
2022/07/14 07:44:57;;;;;;;;;;;;;;;19.89;63.16;98342.25;4665126;30;20226;-84
2022/07/14 07:47:28;;;;;;;;;;;;;;;20.06;63.27;98343.41;4665483;30;20365;-83
2022/07/14 07:49:59;;;;;;;;;;;;;;;20.16;63.10;98332.13;4665653;30;20409;-85
2022/07/14 07:52:34;;;;;;;;;;;;;;;20.43;62.70;98333.66;4665567;30;20436;-84
2022/07/14 07:55:01;;;;;;;;;;;;;;;20.83;61.53;98338.13;4665617;30;19924;-83
2022/07/14 07:57:37;;;;;;;;;;;;;;;21.03;61.20;98336.59;4665614;30;20399;-82
2022/07/14 08:00:09;;;;;;;;;;;;;;;21.20;61.17;98333.75;4665456;30;20403;-84
2022/07/14 08:02:52;;;;;;;;;;;;;;;21.29;59.80;98331.75;4664385;30;19924;-84
2022/07/14 08:05:46;;;;;;;;;;;;;;;21.51;59.09;98341.66;4665624;30;19923;-84
2022/07/14 08:08:38;;;;;;;;;;;;;;;21.81;57.87;98328.69;4664375;30;20365;-84
2022/07/14 08:11:08;;;;;;;;;;;;;;;22.10;57.23;98335.25;4665448;30;20377;-83
2022/07/14 08:13:42;;;;;;;;;;;;;;;22.25;57.18;98331.09;4666263;30;20399;-83
2022/07/14 08:16:15;;;;;;;;;;;;;;;22.49;56.91;98325.69;4668321;30;20428;-84
2022/07/14 08:18:43;;;;;;;;;;;;;;;22.76;56.51;98326.19;4668033;30;20369;-83
2022/07/14 08:25:20;;;;;;;;;;;;;;;23.17;54.46;98318.09;4665414;30;20369;-82
2022/07/14 08:27:51;;;;;;;;;;;;;;;23.46;52.75;98315.09;4665826;30;20425;-81
2022/07/14 08:30:20;;;;;;;;;;;;;;;23.81;52.40;98311.84;4667079;30;20396;-81
2022/07/14 08:32:51;;;;;;;;;;;;;;;23.87;52.36;98310.44;4667005;30;20458;-81
2022/07/14 08:35:21;;;;;;;;;;;;;;;23.89;51.06;98302.63;4666605;30;20385;-82
2022/07/14 08:37:54;;;;;;;;;;;;;;;24.08;50.14;98303.94;4666731;30;20365;-82
2022/07/14 08:40:27;;;;;;;;;;;;;;;24.16;49.81;98292.75;4665592;30;20388;-83
2022/07/14 08:42:58;;;;;;;;;;;;;;;24.26;49.27;98288.69;4665178;30;20381;-83
2022/07/14 08:45:30;;;;;;;;;;;;;;;24.11;49.61;98278.44;4666893;30;20385;-82
2022/07/14 08:48:11;;;;;;;;;;;;;;;24.05;49.37;98275.13;4666487;30;19930;-81
2022/07/14 08:55:24;;;;;;;;;;;;;;;24.93;47.15;98255.75;4630988;31;19979;-83
2022/07/14 08:57:57;;;;;;;;;;;;;;;24.77;47.93;98260.47;4631037;31;20432;-84
2022/07/14 09:04:44;;;;;;;;;;;;;;;25.45;44.74;98260.13;4630620;31;20353;-83
2022/07/14 09:07:31;;;;;;;;;;;;;;;25.34;43.84;98258.28;4631191;31;20357;-84
2022/07/14 09:10:09;;;;;;;;;;;;;;;25.19;43.29;98255.19;4630504;31;20489;-84
2022/07/14 09:12:42;;;;;;;;;;;;;;;25.13;43.07;98244.75;4630862;31;20358;-82
2022/07/14 09:18:00;;;;;;;;;;;;;;;25.27;44.35;98239.59;4631170;31;20496;-83
2022/07/14 09:20:32;;;;;;;;;;;;;;;25.14;44.25;98235.31;4268364;31;11365995;-83
2022/07/14 09:23:03;;;;;;;;;;;;;;;25.06;44.06;98235.16;4632133;31;20408;-83
2022/07/14 09:25:38;;;;;;;;;;;;;;;24.80;43.61;98223.91;4639729;30;19928;-83
2022/07/14 09:28:07;;;;;;;;;;;;;;;24.77;43.53;98219.88;4652130;30;20395;-82
2022/07/14 09:30:39;;;;;;;;;;;;;;;24.60;42.10;98232.09;4667122;30;20432;-83
2022/07/14 09:33:07;;;;;;;;;;;;;;;24.77;41.77;98230.94;4652095;30;20373;-83
2022/07/14 09:35:38;;;;;;;;;;;;;;;25.35;39.84;98235.03;4667215;30;20395;-84
2022/07/14 09:38:18;;;;;;;;;;;;;;;25.25;40.35;98222.59;4666886;30;20446;-83
2022/07/14 09:45:11;;;;;;;;;;;;;;;24.42;40.00;98214.25;4666792;30;19931;-82
2022/07/14 09:47:53;;;;;;;;;;;;;;;24.02;39.36;98209.69;4666474;30;19930;-82
2022/07/14 09:50:35;;;;;;;;;;;;;;;23.86;39.95;98222.63;4666639;30;20396;-82
2022/07/14 09:53:13;;;;;;;;;;;;;;;23.72;38.95;98221.06;4666337;30;20392;-82
2022/07/14 09:56:03;;;;;;;;;;;;;;;24.21;38.54;98214.53;4666293;30;19931;-81
2022/07/14 09:58:40;;;;;;;;;;;;;;;25.13;37.29;98214.41;4664845;30;20423;-83
2022/07/14 10:01:14;;;;;;;;;;;;;;;26.26;36.05;98217.91;4665858;30;20269;-82
2022/07/14 10:03:46;;;;;;;;;;;;;;;26.47;35.92;98214.72;4666281;30;20365;-82
2022/07/14 10:06:15;;;;;;;;;;;;;;;26.37;36.68;98216.13;4664863;30;20314;-83
2022/07/14 10:09:03;;;;;;;;;;;;;;;26.05;38.38;98210.00;4638756;30;20387;-83
2022/07/14 10:16:01;;;;;;;;;;;;;;;25.74;38.83;98217.28;4666512;30;19942;-83
2022/07/14 10:18:29;;;;;;;;;;;;;;;25.69;38.71;98214.81;4665359;30;20382;-82
2022/07/14 10:25:20;;;;;;;;;;;;;;;25.54;38.54;98210.19;4666093;30;20406;-82
2022/07/14 10:27:49;;;;;;;;;;;;;;;25.46;38.00;98223.03;4666563;30;20361;-82
2022/07/14 10:30:20;;;;;;;;;;;;;;;25.58;37.75;98230.41;4666760;30;20367;-82
2022/07/14 10:32:53;;;;;;;;;;;;;;;25.80;37.51;98225.28;4666282;30;20356;-82
2022/07/14 10:35:26;;;;;;;;;;;;;;;25.51;38.22;98241.28;4652007;30;20412;-80
2022/07/14 10:38:10;;;;;;;;;;;;;;;25.11;38.80;98261.69;4665147;30;20399;-82
2022/07/14 10:45:01;;;;;;;;;;;;;;;24.69;38.24;98250.41;4665913;30;20357;-84
2022/07/14 10:47:47;;;;;;;;;;;;;;;25.00;37.67;98222.00;4650485;30;20387;-82
2022/07/14 10:54:38;;;;;;;;;;;;;;;26.42;36.88;98223.31;4665980;30;20361;-83
2022/07/14 10:57:17;;;;;;;;;;;;;;;27.39;35.71;98230.41;4666177;30;20361;-83
2022/07/14 10:59:47;;;;;;;;;;;;;;;28.03;33.96;98217.34;4664964;30;20447;-83
2022/07/14 11:06:44;;;;;;;;;;;;;;;29.24;32.67;98208.47;4665819;30;20383;-84
2022/07/14 11:09:30;;;;;;;;;;;;;;;29.30;32.51;98189.47;4665742;30;20368;-82
2022/07/14 11:12:08;;;;;;;;;;;;;;;29.14;32.98;98203.63;4665618;30;20381;-84
2022/07/14 11:14:45;;;;;;;;;;;;;;;29.45;33.34;98201.41;4665510;30;20365;-83
2022/07/14 11:17:34;;;;;;;;;;;;;;;29.79;33.41;98205.56;4664540;30;20364;-83
2022/07/14 11:20:02;;;;;;;;;;;;;;;30.55;32.98;98209.31;4665450;30;20373;-84
2022/07/14 11:26:50;;;;;;;;;;;;;;;31.25;30.71;98220.00;4665509;30;19947;-83
2022/07/14 11:29:36;;;;;;;;;;;;;;;31.23;30.04;98212.03;4666084;30;20372;-82
2022/07/14 11:36:37;;;;;;;;;;;;;;;31.29;29.84;98207.63;4666357;30;19926;-85
2022/07/14 11:39:22;;;;;;;;;;;;;;;32.02;29.79;98206.19;4666391;30;20369;-84
2022/07/14 11:42:08;;;;;;;;;;;;;;;31.85;29.00;98224.56;4665843;30;20377;-85
2022/07/14 11:44:38;;;;;;;;;;;;;;;32.52;28.46;98210.69;4665694;30;20277;-85
2022/07/14 11:47:07;;;;;;;;;;;;;;;32.28;27.75;98210.41;4664341;30;20391;-84
2022/07/14 11:49:36;;;;;;;;;;;;;;;31.66;29.17;98211.94;4667715;30;20392;-84
2022/07/14 11:52:09;;;;;;;;;;;;;;;31.89;28.46;98208.63;4668733;30;20417;-86
2022/07/14 11:54:37;;;;;;;;;;;;;;;31.98;28.65;98222.19;4653491;30;20440;-86
2022/07/14 11:57:25;;;;;;;;;;;;;;;31.42;29.48;98208.03;4625457;30;20483;-85
2022/07/14 11:59:53;;;;;;;;;;;;;;;31.51;28.92;98211.19;4633883;31;19928;-85
2022/07/14 12:02:40;;;;;;;;;;;;;;;31.46;28.73;98196.88;4637351;31;19924;-86
2022/07/14 12:05:13;;;;;;;;;;;;;;;32.03;28.51;98184.66;4622169;31;20439;-84
2022/07/14 12:07:45;;;;;;;;;;;;;;;32.75;27.25;98180.16;4633267;31;20397;-84
2022/07/14 12:10:18;;;;;;;;;;;;;;;32.31;27.48;98167.72;4632587;31;20429;-87
2022/07/14 12:12:52;;;;;;;;;;;;;;;31.95;29.33;98167.16;4619177;31;20439;-87
2022/07/14 12:15:23;;;;;;;;;;;;;;;32.40;28.54;98153.28;4632757;31;20352;-88
2022/07/14 12:17:54;;;;;;;;;;;;;;;32.39;27.78;98149.72;4619658;31;20445;-87
2022/07/14 12:20:22;;;;;;;;;;;;;;;31.36;28.55;98161.44;4632374;31;20313;-84
2022/07/14 12:22:54;;;;;;;;;;;;;;;30.56;29.73;98162.75;4618875;31;20440;-87
2022/07/14 12:25:54;;;;;;;;;;;;;;;30.80;29.68;98150.03;4632311;31;20377;-85
2022/07/14 12:28:23;;;;;;;;;;;;;;;30.92;30.76;98146.84;4618081;31;19924;-86
2022/07/14 12:30:54;;;;;;;;;;;;;;;31.97;29.62;98131.28;4618283;31;20389;-87
2022/07/14 12:33:32;;;;;;;;;;;;;;;32.36;27.75;98139.38;4632401;30;20496;-87
2022/07/14 12:36:04;;;;;;;;;;;;;;;31.33;28.82;98132.38;4622490;30;19924;-86
2022/07/14 12:38:33;;;;;;;;;;;;;;;30.03;30.12;98119.81;4667899;30;20380;-86
2022/07/14 12:45:28;;;;;;;;;;;;;;;30.18;31.67;98096.38;4669267;30;19955;-88
2022/07/14 12:47:58;;;;;;;;;;;;;;;31.55;29.91;98093.25;4668220;30;20408;-87
2022/07/14 12:54:51;;;;;;;;;;;;;;;33.34;27.08;98070.09;4668024;30;19971;-88
2022/07/14 12:57:40;;;;;;;;;;;;;;;32.27;28.07;98072.03;4668300;30;19924;-88
2022/07/14 13:00:14;;;;;;;;;;;;;;;33.39;27.49;98066.84;4667025;30;20330;-88
2022/07/14 13:02:43;;;;;;;;;;;;;;;32.83;27.36;98059.94;4667774;30;20361;-85
2022/07/14 13:05:13;;;;;;;;;;;;;;;32.00;28.51;98054.34;4667719;30;20456;-86
2022/07/14 13:07:41;;;;;;;;;;;;;;;32.31;28.52;98046.88;4667493;30;20381;-87
2022/07/14 13:10:16;;;;;;;;;;;;;;;32.58;27.84;98045.03;4667448;30;20361;-88
2022/07/14 13:12:45;;;;;;;;;;;;;;;31.91;28.92;98038.84;4652399;30;20369;-86
2022/07/14 13:15:18;;;;;;;;;;;;;;;31.43;29.60;98027.63;4667651;30;20372;-84
2022/07/14 13:18:04;;;;;;;;;;;;;;;31.34;29.65;98024.47;4667367;30;20385;-84
2022/07/14 13:20:54;;;;;;;;;;;;;;;31.23;29.68;98030.91;4669528;30;20377;-86
2022/07/14 13:23:31;;;;;;;;;;;;;;;30.43;30.63;98040.69;4683624;30;19932;-85
2022/07/14 13:26:05;;;;;;;;;;;;;;;30.03;30.77;98041.94;4684128;30;20381;-87
2022/07/14 13:28:35;;;;;;;;;;;;;;;30.13;30.91;98046.69;4680934;30;19955;-87
2022/07/14 13:35:42;;;;;;;;;;;;;;;30.55;30.39;98055.41;4667696;30;20365;-86
2022/07/14 13:38:13;;;;;;;;;;;;;;;32.04;28.64;98052.31;4652781;30;20333;-86
2022/07/14 13:45:06;;;;;;;;;;;;;;;33.58;26.23;98057.03;4667186;30;20018;-88
2022/07/14 13:47:37;;;;;;;;;;;;;;;33.28;26.64;98043.84;4667249;30;19924;-88
2022/07/14 13:52:56;;;;;;;;;;;;;;;33.61;26.27;98039.41;4667153;30;19989;-86
2022/07/14 13:55:26;;;;;;;;;;;;;;;34.49;25.20;98041.16;4666764;30;20381;-86
2022/07/14 13:57:54;;;;;;;;;;;;;;;35.27;24.43;98038.06;4667200;30;20432;-86
2022/07/14 14:00:22;;;;;;;;;;;;;;;35.53;23.85;98032.66;4671237;30;19954;-86
2022/07/14 14:05:38;;;;;;;;;;;;;;;35.35;23.59;98047.88;4679369;30;19923;-86
2022/07/14 14:08:10;;;;;;;;;;;;;;;35.81;23.70;98045.25;4676877;30;19935;-87
2022/07/14 14:14:55;;;;;;;;;;;;;;;30.97;27.98;98029.44;4666541;30;19989;-87
2022/07/14 14:17:24;;;;;;;;;;;;;;;29.52;30.24;98032.69;4651484;30;20414;-87
2022/07/14 14:19:55;;;;;;;;;;;;;;;28.52;31.86;98024.00;4666111;30;20333;-84
2022/07/14 14:26:47;;;;;;;;;;;;;;;28.36;32.46;98027.03;4666726;30;19926;-86
2022/07/14 14:29:21;;;;;;;;;;;;;;;27.70;33.99;98021.38;4652153;30;20385;-85
2022/07/14 14:36:17;;;;;;;;;;;;;;;27.47;34.51;98032.59;4666932;30;19994;-86
2022/07/14 14:38:48;;;;;;;;;;;;;;;26.82;35.37;98035.81;4666157;30;20385;-86
2022/07/14 14:45:50;;;;;;;;;;;;;;;25.98;36.91;98033.00;4666018;30;19926;-87
2022/07/14 14:48:19;;;;;;;;;;;;;;;26.47;36.36;98031.34;4664862;30;20435;-86
2022/07/14 14:50:52;;;;;;;;;;;;;;;27.73;35.20;98036.44;4665872;30;19983;-86
2022/07/14 14:53:29;;;;;;;;;;;;;;;29.87;32.20;98024.81;4665553;30;20389;-86
2022/07/14 14:56:02;;;;;;;;;;;;;;;30.52;30.89;98022.81;4665599;30;20439;-87
2022/07/14 14:58:33;;;;;;;;;;;;;;;31.11;29.83;98020.22;4665987;30;20377;-87
2022/07/14 15:01:01;;;;;;;;;;;;;;;29.41;31.93;98022.78;4666117;30;20284;-84
2022/07/14 15:03:32;;;;;;;;;;;;;;;28.13;33.64;98018.16;4665236;30;20288;-89
2022/07/14 15:06:03;;;;;;;;;;;;;;;28.29;33.86;98018.66;4665681;30;19924;-85
2022/07/14 15:08:34;;;;;;;;;;;;;;;29.72;31.78;98024.03;4665556;30;20280;-83
2022/07/14 15:11:05;;;;;;;;;;;;;;;29.23;32.23;98023.53;4666044;30;19951;-84
2022/07/14 15:13:36;;;;;;;;;;;;;;;28.57;33.21;98025.59;4665793;30;19951;-88
2022/07/14 15:16:05;;;;;;;;;;;;;;;28.83;33.01;98018.97;4666949;30;20456;-84
2022/07/14 15:18:34;;;;;;;;;;;;;;;30.48;30.71;98028.34;4666008;30;20373;-85
2022/07/14 15:25:20;;;;;;;;;;;;;;;28.63;33.09;98018.50;4669349;30;20360;-82
2022/07/14 15:27:50;;;;;;;;;;;;;;;28.29;33.47;98013.13;4669128;30;20365;-82
2022/07/14 15:30:19;;;;;;;;;;;;;;;27.93;33.73;98010.09;4668928;30;20421;-83
2022/07/14 15:32:52;;;;;;;;;;;;;;;27.11;34.78;98018.34;4668971;30;19970;-86
2022/07/14 15:35:27;;;;;;;;;;;;;;;26.60;35.04;98021.69;4639543;30;20542;-85
2022/07/14 15:37:56;;;;;;;;;;;;;;;26.00;36.15;98013.25;4669246;30;20361;-83
2022/07/14 15:43:16;;;;;;;;;;;;;;;24.92;38.66;98014.06;4656194;30;20448;-86
2022/07/14 15:45:46;;;;;;;;;;;;;;;24.53;39.37;98010.47;4667839;30;20414;-87
2022/07/14 15:48:25;;;;;;;;;;;;;;;24.34;39.99;98013.97;4654036;30;20377;-86
2022/07/14 15:55:22;;;;;;;;;;;;;;;24.03;40.16;98015.66;4668220;30;19982;-89
2022/07/14 15:57:50;;;;;;;;;;;;;;;23.96;40.41;98012.72;4668431;30;20381;-87
2022/07/14 16:00:19;;;;;;;;;;;;;;;23.90;40.62;98016.88;4668880;30;20280;-87
2022/07/14 16:02:55;;;;;;;;;;;;;;;23.94;40.95;98013.06;4669438;30;20357;-87
2022/07/14 16:05:29;;;;;;;;;;;;;;;23.97;40.63;98017.06;4669231;30;20369;-87
2022/07/14 16:08:02;;;;;;;;;;;;;;;23.96;40.64;98004.44;4668207;30;20376;-90
2022/07/14 16:14:50;;;;;;;;;;;;;;;23.54;41.77;97997.47;4668617;30;20312;-88
2022/07/14 16:17:19;;;;;;;;;;;;;;;23.30;42.05;97998.44;4667580;30;19931;-87
2022/07/14 16:19:58;;;;;;;;;;;;;;;23.25;41.80;98006.19;4668057;30;20397;-87
2022/07/14 16:26:54;;;;;;;;;;;;;;;23.22;41.59;97990.34;4669378;30;20357;-87
2022/07/14 16:29:23;;;;;;;;;;;;;;;23.20;41.52;97992.66;4669939;30;20365;-91
2022/07/14 16:36:19;;;;;;;;;;;;;;;23.04;43.23;98000.88;4669790;30;20060;-87
2022/07/14 16:38:57;;;;;;;;;;;;;;;22.74;44.64;98006.72;4654526;30;20400;-86
2022/07/14 16:45:52;;;;;;;;;;;;;;;22.08;46.66;98008.66;4668199;30;19986;-83
2022/07/14 16:48:20;;;;;;;;;;;;;;;21.91;47.34;98017.13;4668043;30;20369;-83
2022/07/14 16:50:50;;;;;;;;;;;;;;;21.81;47.66;98006.59;4653315;30;20468;-85